Aviation Digital Data Service (ADDS)

Output produced by METARs form (2156 UTC 19 February 2018)
found at http://www.aviationweather.gov/adds/metars/
 
TAF FWCL 191430Z 1918/2024 07007KT CAVOK 
     FM200700 03004KT 9999 FEW030TCU 
     BECMG 2010/2012 36007KT FEW030CB SCT070 
     FM201600 10008KT CAVOK